Time;durP1;ratioP1;P1;durP2;ratioP2;P2;SDS_P1;SDS_P2;PMS_P1;PMS_P2;Temp;Humidity;BMP_temperature;BMP_pressure;BME280_temperature;BME280_humidity;BME280_pressure;Samples;Min_cycle;Max_cycle;Signal;HPM_P1;HPM_P2
2022/05/09 00:00:29;;;;;;;1.50;0.30;;;10.90;59.80;;;;;;5094959;28;20510;-70
2022/05/09 00:02:55;;;;;;;0.98;0.43;;;10.90;59.90;;;;;;5113335;28;20035;-71
2022/05/09 00:05:24;;;;;;;0.30;0.28;;;10.90;60.00;;;;;;5113765;28;20039;-70
2022/05/09 00:07:50;;;;;;;0.50;0.43;;;10.90;60.70;;;;;;5113280;28;20036;-70
2022/05/09 00:10:19;;;;;;;1.25;0.30;;;10.80;60.00;;;;;;5112981;28;20050;-70
2022/05/09 00:12:44;;;;;;;0.85;0.40;;;10.80;60.10;;;;;;5113018;28;20139;-70
2022/05/09 00:15:11;;;;;;;0.55;0.20;;;10.80;60.10;;;;;;5113392;28;20497;-70
2022/05/09 00:17:38;;;;;;;0.75;0.38;;;10.80;60.20;;;;;;5113371;28;20066;-71
2022/05/09 00:20:04;;;;;;;0.75;0.40;;;10.80;60.30;;;;;;5112752;28;20040;-70
2022/05/09 00:22:30;;;;;;;1.38;0.40;;;10.80;60.30;;;;;;5112625;28;20447;-70
2022/05/09 00:25:03;;;;;;;0.35;0.35;;;10.80;60.40;;;;;;5094711;28;20048;-70
2022/05/09 00:27:28;;;;;;;0.30;0.30;;;10.80;60.50;;;;;;5111683;28;20123;-71
2022/05/09 00:29:54;;;;;;;0.30;0.30;;;10.70;60.50;;;;;;5112877;28;20067;-72
2022/05/09 00:32:21;;;;;;;0.40;0.40;;;10.80;60.70;;;;;;5112515;28;20085;-71
2022/05/09 00:34:46;;;;;;;0.73;0.40;;;10.70;60.70;;;;;;5113291;28;20066;-71
2022/05/09 00:37:12;;;;;;;0.77;0.40;;;10.70;60.80;;;;;;5112950;28;20477;-71
2022/05/09 00:39:38;;;;;;;0.30;0.30;;;10.70;60.90;;;;;;5112911;28;20439;-72
2022/05/09 00:42:13;;;;;;;0.80;0.32;;;10.60;60.90;;;;;;5112703;28;20096;-72
2022/05/09 00:44:39;;;;;;;0.80;0.30;;;10.50;60.90;;;;;;5112754;28;20035;-71
2022/05/09 00:47:05;;;;;;;0.95;0.30;;;10.60;61.00;;;;;;5112846;28;20050;-71
2022/05/09 00:49:40;;;;;;;0.73;0.40;;;10.60;61.10;;;;;;5094205;28;20036;-71
2022/05/09 00:52:15;;;;;;;0.73;0.32;;;10.50;61.20;;;;;;5112369;28;20058;-71
2022/05/09 00:54:58;;;;;;;0.40;0.30;;;10.50;61.20;;;;;;5094138;28;20046;-71
2022/05/09 00:57:37;;;;;;;0.40;0.35;;;10.50;61.30;;;;;;5111930;28;20044;-71
2022/05/09 01:00:08;;;;;;;0.85;0.40;;;10.50;61.40;;;;;;5112349;28;20069;-71
2022/05/09 01:02:35;;;;;;;1.92;0.35;;;10.50;61.40;;;;;;5113758;28;20032;-72
2022/05/09 01:05:04;;;;;;;0.82;0.30;;;10.40;61.50;;;;;;5097718;28;20045;-72
2022/05/09 01:07:30;;;;;;;0.75;0.30;;;10.40;61.50;;;;;;5096267;28;20085;-71
2022/05/09 01:09:57;;;;;;;1.08;0.50;;;10.40;61.60;;;;;;5115968;28;20358;-71
2022/05/09 01:12:29;;;;;;;0.98;0.43;;;10.40;61.60;;;;;;5098251;28;20628;-71
2022/05/09 01:14:58;;;;;;;0.30;0.20;;;10.40;61.70;;;;;;5097701;28;20040;-71
2022/05/09 01:17:24;;;;;;;0.55;0.20;;;10.40;61.70;;;;;;5097423;28;20048;-71
2022/05/09 01:19:53;;;;;;;1.42;0.40;;;10.40;61.80;;;;;;5116336;28;20355;-71
2022/05/09 01:22:27;;;;;;;0.52;0.30;;;10.40;61.80;;;;;;5115986;28;20031;-72
2022/05/09 01:24:55;;;;;;;0.77;0.40;;;10.30;61.80;;;;;;5115677;28;20390;-71
2022/05/09 01:27:21;;;;;;;0.63;0.22;;;10.30;61.90;;;;;;5115647;28;20548;-71
2022/05/09 01:30:08;;;;;;;0.40;0.30;;;10.30;62.00;;;;;;5097532;28;20130;-71
2022/05/09 01:32:53;;;;;;;0.40;0.35;;;10.30;62.10;;;;;;5114230;28;20122;-71
2022/05/09 01:35:34;;;;;;;0.43;0.32;;;10.30;62.10;;;;;;5115904;28;20043;-72
2022/05/09 01:38:18;;;;;;;1.25;0.30;;;10.30;62.20;;;;;;5115634;28;20050;-72
2022/05/09 01:40:44;;;;;;;1.40;0.45;;;10.20;62.10;;;;;;5115656;28;20122;-71
2022/05/09 01:43:10;;;;;;;0.35;0.20;;;10.20;62.20;;;;;;5115900;28;20069;-71
2022/05/09 01:45:36;;;;;;;1.65;0.30;;;10.20;62.30;;;;;;5097630;28;20533;-71
2022/05/09 01:50:45;;;;;;;0.32;0.20;;;10.20;62.40;;;;;;5099599;28;20051;-71
2022/05/09 01:53:10;;;;;;;1.38;0.32;;;10.20;62.50;;;;;;5116099;28;20036;-71
2022/05/09 01:55:37;;;;;;;1.20;0.40;;;10.10;63.10;;;;;;5115453;28;20043;-71
2022/05/09 01:58:04;;;;;;;1.08;0.30;;;10.10;62.60;;;;;;5115205;28;20433;-71
2022/05/09 02:00:32;;;;;;;0.57;0.28;;;10.10;62.70;;;;;;5115412;28;20441;-71
2022/05/09 02:02:59;;;;;;;1.08;0.40;;;10.10;62.70;;;;;;5115573;28;20062;-71
2022/05/09 02:05:26;;;;;;;0.45;0.30;;;10.10;62.80;;;;;;5115073;28;20489;-71
2022/05/09 02:07:52;;;;;;;0.65;0.30;;;10.10;62.90;;;;;;5115115;28;20106;-71
2022/05/09 02:10:18;;;;;;;0.50;0.30;;;10.00;63.00;;;;;;5115671;28;20084;-71
2022/05/09 02:12:44;;;;;;;0.57;0.40;;;10.00;63.00;;;;;;5115130;28;20040;-71
2022/05/09 02:15:10;;;;;;;0.80;0.40;;;10.00;63.10;;;;;;5096601;28;20032;-71
2022/05/09 02:17:37;;;;;;;0.90;0.30;;;10.00;63.20;;;;;;5114762;28;20074;-71
2022/05/09 02:20:04;;;;;;;0.30;0.30;;;9.90;63.20;;;;;;5115130;28;20042;-71
2022/05/09 02:22:30;;;;;;;0.30;0.25;;;9.90;63.20;;;;;;5096511;28;20047;-71
2022/05/09 02:24:55;;;;;;;0.50;0.20;;;10.00;63.30;;;;;;5115270;28;20040;-71
2022/05/09 02:27:23;;;;;;;0.65;0.25;;;9.90;63.30;;;;;;5096794;28;20043;-71
2022/05/09 02:29:49;;;;;;;0.22;0.22;;;9.90;63.40;;;;;;5114841;28;20046;-71
2022/05/09 02:32:16;;;;;;;0.57;0.40;;;9.90;63.50;;;;;;5115282;28;20050;-71
2022/05/09 02:34:42;;;;;;;0.25;0.22;;;9.90;63.60;;;;;;5096687;28;20097;-71
2022/05/09 02:37:08;;;;;;;0.50;0.20;;;9.90;63.60;;;;;;5114473;28;20105;-71
2022/05/09 02:39:34;;;;;;;0.30;0.20;;;9.80;63.60;;;;;;5096738;28;20039;-71
2022/05/09 02:42:00;;;;;;;0.20;0.20;;;9.70;63.60;;;;;;5114925;28;20036;-71
2022/05/09 02:44:28;;;;;;;0.52;0.40;;;9.80;63.70;;;;;;5114505;28;20046;-71
2022/05/09 02:46:54;;;;;;;0.45;0.30;;;9.80;63.70;;;;;;5114704;28;20505;-71
2022/05/09 02:49:19;;;;;;;0.63;0.20;;;9.90;63.80;;;;;;5114459;28;20032;-71
2022/05/09 02:51:48;;;;;;;0.45;0.30;;;9.80;63.90;;;;;;5114314;28;20119;-71
2022/05/09 02:54:14;;;;;;;0.65;0.40;;;9.80;64.00;;;;;;5097156;28;20036;-71
2022/05/09 02:56:40;;;;;;;2.03;0.40;;;9.70;64.00;;;;;;5095930;28;20050;-71
2022/05/09 02:59:05;;;;;;;0.73;0.15;;;9.70;64.10;;;;;;5114192;28;20126;-70
2022/05/09 03:01:31;;;;;;;0.50;0.30;;;9.70;64.10;;;;;;5114233;28;20035;-71
2022/05/09 03:06:33;;;;;;;0.85;0.40;;;9.60;64.10;;;;;;5114184;28;20481;-71
2022/05/09 03:08:59;;;;;;;0.60;0.38;;;9.60;64.20;;;;;;5114238;28;20043;-72
2022/05/09 03:11:24;;;;;;;0.68;0.30;;;9.60;64.30;;;;;;5095891;28;20485;-71
2022/05/09 03:13:50;;;;;;;0.32;0.30;;;9.60;64.30;;;;;;5078991;28;20077;-71
2022/05/09 03:16:16;;;;;;;0.98;0.40;;;9.50;64.30;;;;;;5096181;28;20110;-71
2022/05/09 03:18:41;;;;;;;0.30;0.30;;;9.60;64.50;;;;;;5114395;28;20067;-71
2022/05/09 03:21:07;;;;;;;0.70;0.40;;;9.50;64.50;;;;;;5113843;28;20562;-72
2022/05/09 03:23:33;;;;;;;1.00;0.30;;;9.60;64.60;;;;;;5114344;28;20023;-71
2022/05/09 03:25:59;;;;;;;0.32;0.32;;;9.40;64.60;;;;;;5095684;28;20042;-71
2022/05/09 03:28:25;;;;;;;0.80;0.40;;;9.40;64.60;;;;;;5114489;28;20031;-71
2022/05/09 03:30:53;;;;;;;0.20;0.20;;;9.40;64.70;;;;;;5114197;28;20047;-71
2022/05/09 03:33:20;;;;;;;0.98;0.50;;;9.40;64.80;;;;;;5113800;28;20097;-71
2022/05/09 03:35:46;;;;;;;1.58;0.40;;;9.40;64.80;;;;;;5114425;28;20075;-71
2022/05/09 03:38:12;;;;;;;0.40;0.25;;;9.50;65.00;;;;;;5113730;28;20075;-71
2022/05/09 03:40:39;;;;;;;1.40;0.50;;;9.40;65.00;;;;;;5113613;28;20036;-71
2022/05/09 03:43:06;;;;;;;1.08;0.30;;;9.30;65.00;;;;;;5113516;28;20039;-71
2022/05/09 03:45:33;;;;;;;0.98;0.40;;;9.30;65.00;;;;;;5113664;28;20039;-71
2022/05/09 03:47:59;;;;;;;0.30;0.30;;;9.40;65.10;;;;;;5113674;28;20039;-71
2022/05/09 03:50:27;;;;;;;0.85;0.28;;;9.30;65.10;;;;;;5095579;28;20386;-71
2022/05/09 03:52:52;;;;;;;0.20;0.20;;;9.30;65.80;;;;;;5095633;28;20054;-71
2022/05/09 03:55:18;;;;;;;0.43;0.30;;;9.20;65.10;;;;;;5095382;28;20040;-71
2022/05/09 03:57:48;;;;;;;0.40;0.40;;;9.20;65.20;;;;;;5113696;28;20051;-71
2022/05/09 04:00:15;;;;;;;0.35;0.22;;;9.30;65.30;;;;;;5078462;28;20089;-71
2022/05/09 04:02:43;;;;;;;0.43;0.25;;;9.20;65.30;;;;;;5113786;28;20444;-71
2022/05/09 04:05:15;;;;;;;0.13;0.13;;;9.20;65.30;;;;;;5113516;28;20122;-71
2022/05/09 04:07:43;;;;;;;1.85;0.57;;;9.30;65.40;;;;;;5095216;28;20044;-71
2022/05/09 04:10:09;;;;;;;0.73;0.30;;;9.20;66.00;;;;;;5113215;28;20047;-71
2022/05/09 04:12:35;;;;;;;0.55;0.38;;;9.20;65.40;;;;;;5113270;28;20171;-71
2022/05/09 04:17:47;;;;;;;1.30;0.30;;;9.20;65.50;;;;;;5098174;28;20048;-71
2022/05/09 04:20:12;;;;;;;1.27;0.30;;;9.20;65.50;;;;;;5113362;28;20093;-71
2022/05/09 04:22:40;;;;;;;0.38;0.38;;;9.20;65.50;;;;;;5113379;28;20036;-71
2022/05/09 04:25:06;;;;;;;1.48;0.50;;;9.20;65.50;;;;;;5113252;28;20032;-71
2022/05/09 04:27:33;;;;;;;1.20;0.30;;;9.20;65.50;;;;;;5113271;28;20102;-71
2022/05/09 04:29:58;;;;;;;0.50;0.20;;;9.10;65.50;;;;;;5112938;28;20090;-71
2022/05/09 04:32:24;;;;;;;0.63;0.55;;;9.20;65.60;;;;;;5113276;28;20100;-71
2022/05/09 04:34:50;;;;;;;0.40;0.30;;;9.10;65.60;;;;;;5113248;28;20042;-71
2022/05/09 04:37:16;;;;;;;0.65;0.35;;;9.20;65.70;;;;;;5094036;28;20131;-71
2022/05/09 04:39:41;;;;;;;0.10;0.10;;;9.20;65.60;;;;;;5095140;28;20074;-71
2022/05/09 04:42:09;;;;;;;0.70;0.40;;;9.20;65.60;;;;;;5095043;28;20050;-71
2022/05/09 04:44:35;;;;;;;0.73;0.38;;;9.20;65.60;;;;;;5112958;28;20047;-71
2022/05/09 04:47:01;;;;;;;0.65;0.20;;;9.20;65.60;;;;;;5113015;28;20044;-71
2022/05/09 04:49:26;;;;;;;0.32;0.20;;;9.30;65.70;;;;;;5112762;28;20114;-72
2022/05/09 04:51:52;;;;;;;0.30;0.30;;;9.20;65.70;;;;;;5094434;28;20039;-72
2022/05/09 04:54:18;;;;;;;1.30;0.50;;;9.30;65.80;;;;;;5112884;28;20489;-72
2022/05/09 04:56:43;;;;;;;1.55;0.40;;;9.30;65.70;;;;;;5094564;28;20044;-72
2022/05/09 04:59:09;;;;;;;1.33;0.57;;;9.30;65.70;;;;;;5112640;28;20039;-73
2022/05/09 05:01:35;;;;;;;0.93;0.43;;;9.30;65.70;;;;;;5077585;28;20040;-72
2022/05/09 05:04:01;;;;;;;0.57;0.40;;;9.30;65.80;;;;;;5077849;28;20128;-72
2022/05/09 05:06:26;;;;;;;0.30;0.30;;;9.30;65.70;;;;;;5113099;28;20111;-72
2022/05/09 05:08:52;;;;;;;0.20;0.20;;;9.30;65.70;;;;;;5094614;28;20461;-72
2022/05/09 05:11:18;;;;;;;0.20;0.20;;;9.40;65.70;;;;;;5113053;28;20043;-69
2022/05/09 05:13:43;;;;;;;0.85;0.50;;;9.40;65.70;;;;;;5094339;28;20035;-70
2022/05/09 05:16:09;;;;;;;0.80;0.43;;;9.50;65.70;;;;;;5112904;28;20039;-69
2022/05/09 05:18:35;;;;;;;0.38;0.30;;;9.50;65.60;;;;;;5112278;28;20040;-69
2022/05/09 05:21:09;;;;;;;0.43;0.20;;;9.50;65.60;;;;;;5112811;28;20108;-70
2022/05/09 05:23:34;;;;;;;0.52;0.20;;;9.60;65.70;;;;;;5094326;28;20027;-69
2022/05/09 05:26:01;;;;;;;0.45;0.30;;;9.60;65.60;;;;;;5112473;28;20034;-69
2022/05/09 05:28:27;;;;;;;0.40;0.35;;;9.60;65.60;;;;;;5094109;28;20044;-70
2022/05/09 05:30:53;;;;;;;0.98;0.50;;;9.70;65.60;;;;;;5112850;28;20099;-69
2022/05/09 05:33:20;;;;;;;0.47;0.38;;;9.70;65.60;;;;;;5112950;28;20046;-70
2022/05/09 05:35:46;;;;;;;0.70;0.32;;;9.80;65.60;;;;;;5112279;28;20043;-69
2022/05/09 05:38:11;;;;;;;0.60;0.30;;;9.80;65.50;;;;;;5112856;28;20047;-69
2022/05/09 05:40:37;;;;;;;0.30;0.30;;;9.80;65.40;;;;;;5094149;28;20031;-72
2022/05/09 05:43:03;;;;;;;1.15;0.50;;;9.90;65.40;;;;;;5112471;28;20043;-73
2022/05/09 05:45:29;;;;;;;0.75;0.32;;;9.90;65.40;;;;;;5112025;28;20396;-73
2022/05/09 05:47:54;;;;;;;0.30;0.30;;;9.90;65.30;;;;;;5093994;28;20097;-72
2022/05/09 05:50:22;;;;;;;0.65;0.40;;;9.90;65.30;;;;;;5114363;28;20040;-72
2022/05/09 05:52:48;;;;;;;1.02;0.50;;;10.10;65.40;;;;;;5115617;28;20500;-72
2022/05/09 05:55:14;;;;;;;0.88;0.38;;;10.10;65.40;;;;;;5115443;28;20050;-73
2022/05/09 05:57:41;;;;;;;0.65;0.40;;;10.10;65.30;;;;;;5097491;28;20063;-72
2022/05/09 06:00:13;;;;;;;0.22;0.22;;;10.20;65.30;;;;;;5097507;28;20032;-70
2022/05/09 06:02:39;;;;;;;0.55;0.32;;;10.20;65.30;;;;;;5115383;28;20054;-72
2022/05/09 06:05:07;;;;;;;0.85;0.40;;;10.20;65.20;;;;;;5080117;28;20039;-72
2022/05/09 06:07:33;;;;;;;1.17;0.30;;;10.30;65.20;;;;;;5115462;28;20045;-73
2022/05/09 06:09:59;;;;;;;0.70;0.40;;;10.30;65.10;;;;;;5115446;28;20127;-73
2022/05/09 06:12:25;;;;;;;0.35;0.30;;;10.40;65.10;;;;;;5115366;28;20047;-72
2022/05/09 06:17:34;;;;;;;1.00;0.40;;;10.60;65.10;;;;;;5115017;28;20055;-70
2022/05/09 06:20:00;;;;;;;0.95;0.50;;;10.60;65.00;;;;;;5096563;28;20046;-70
2022/05/09 06:22:26;;;;;;;0.55;0.40;;;10.70;64.90;;;;;;5096706;28;20039;-70
2022/05/09 06:25:01;;;;;;;0.75;0.50;;;10.70;64.80;;;;;;5114960;28;20123;-70
2022/05/09 06:27:27;;;;;;;0.60;0.30;;;10.80;64.80;;;;;;5115089;28;20044;-73
2022/05/09 06:29:52;;;;;;;2.08;0.65;;;10.80;64.70;;;;;;5115038;28;20451;-69
2022/05/09 06:32:23;;;;;;;0.52;0.40;;;10.90;64.70;;;;;;5115157;28;20032;-70
2022/05/09 06:34:50;;;;;;;0.40;0.20;;;10.90;64.60;;;;;;5114781;28;20036;-72
2022/05/09 06:37:16;;;;;;;0.40;0.40;;;11.00;64.70;;;;;;5113005;28;20471;-72
2022/05/09 06:39:42;;;;;;;0.30;0.30;;;11.10;64.70;;;;;;5079845;28;20035;-73
2022/05/09 06:42:08;;;;;;;1.20;0.40;;;11.10;64.60;;;;;;5114770;28;20043;-72
2022/05/09 06:44:35;;;;;;;0.30;0.30;;;11.20;64.60;;;;;;5096575;28;20102;-73
2022/05/09 06:47:02;;;;;;;1.13;0.47;;;11.20;64.60;;;;;;5096472;28;20055;-72
2022/05/09 06:49:28;;;;;;;1.35;0.50;;;11.30;64.50;;;;;;5096430;28;20115;-74
2022/05/09 06:51:54;;;;;;;2.42;0.40;;;11.40;64.40;;;;;;5114403;28;20122;-72
2022/05/09 06:54:21;;;;;;;0.50;0.40;;;11.50;64.30;;;;;;5096269;28;20046;-73
2022/05/09 06:56:48;;;;;;;0.68;0.30;;;11.60;64.20;;;;;;5079644;28;20036;-73
2022/05/09 06:59:14;;;;;;;0.65;0.45;;;11.80;64.20;;;;;;5096164;28;20060;-73
2022/05/09 07:01:40;;;;;;;0.30;0.30;;;11.70;64.10;;;;;;5114272;28;20040;-73
2022/05/09 07:04:06;;;;;;;0.57;0.30;;;11.80;64.00;;;;;;5079290;28;20031;-72
2022/05/09 07:06:31;;;;;;;0.35;0.32;;;11.80;63.90;;;;;;5114719;28;20069;-72
2022/05/09 07:08:57;;;;;;;0.93;0.40;;;11.90;63.90;;;;;;5096311;28;20043;-72
2022/05/09 07:11:23;;;;;;;0.60;0.38;;;12.00;63.90;;;;;;5115068;28;20039;-70
2022/05/09 07:13:48;;;;;;;0.20;0.20;;;12.10;63.80;;;;;;5114868;28;20046;-72
2022/05/09 07:16:14;;;;;;;0.40;0.40;;;12.20;63.70;;;;;;5096680;28;20416;-72
2022/05/09 07:18:41;;;;;;;0.30;0.30;;;12.40;63.60;;;;;;5114799;28;20503;-72
2022/05/09 07:21:07;;;;;;;1.08;0.50;;;12.50;63.30;;;;;;5079516;28;20036;-72
2022/05/09 07:23:34;;;;;;;1.45;0.40;;;12.70;63.20;;;;;;5079121;28;20110;-72
2022/05/09 07:26:03;;;;;;;0.40;0.40;;;12.80;62.90;;;;;;5096770;28;20096;-72
2022/05/09 07:28:30;;;;;;;0.30;0.20;;;12.90;62.80;;;;;;5095873;28;20040;-72
2022/05/09 07:30:56;;;;;;;0.40;0.40;;;13.10;62.60;;;;;;5095866;28;20039;-72
2022/05/09 07:33:22;;;;;;;0.32;0.32;;;13.40;62.50;;;;;;5114714;28;20028;-69
2022/05/09 07:35:49;;;;;;;0.68;0.30;;;13.40;62.30;;;;;;5095835;28;20062;-70
2022/05/09 07:38:15;;;;;;;0.32;0.32;;;13.60;62.20;;;;;;5113973;28;20382;-70
2022/05/09 07:40:43;;;;;;;0.65;0.30;;;13.80;62.00;;;;;;5078673;28;20060;-70
2022/05/09 07:43:14;;;;;;;0.35;0.30;;;13.90;61.80;;;;;;5094688;28;20078;-70
2022/05/09 07:45:43;;;;;;;0.40;0.40;;;14.10;61.70;;;;;;5095581;28;20047;-71
2022/05/09 07:48:09;;;;;;;0.57;0.35;;;14.30;61.50;;;;;;5113931;28;20036;-70
2022/05/09 07:50:36;;;;;;;0.85;0.43;;;14.50;61.30;;;;;;5113803;28;20173;-69
2022/05/09 07:53:07;;;;;;;0.35;0.30;;;14.60;61.10;;;;;;5113745;28;20089;-70
2022/05/09 07:55:33;;;;;;;0.77;0.50;;;14.80;61.00;;;;;;5095470;28;20041;-70
2022/05/09 07:57:59;;;;;;;0.85;0.57;;;15.00;60.80;;;;;;5113591;28;20119;-70
2022/05/09 08:00:25;;;;;;;0.65;0.50;;;15.10;60.60;;;;;;5113668;28;20058;-70
2022/05/09 08:02:50;;;;;;;0.40;0.40;;;15.40;60.50;;;;;;5113652;28;20047;-71
2022/05/09 08:05:17;;;;;;;1.88;0.52;;;15.60;60.30;;;;;;5095155;28;20088;-71
2022/05/09 08:07:42;;;;;;;0.80;0.43;;;15.80;60.10;;;;;;5095883;28;20058;-71
2022/05/09 08:10:10;;;;;;;0.52;0.50;;;16.00;59.90;;;;;;5113674;28;20540;-71
2022/05/09 08:12:37;;;;;;;0.80;0.70;;;16.20;59.80;;;;;;5077384;28;20047;-71
2022/05/09 08:15:04;;;;;;;0.50;0.50;;;16.40;59.60;;;;;;5113909;28;20043;-72
2022/05/09 08:17:29;;;;;;;0.47;0.40;;;16.70;59.60;;;;;;5113105;28;20473;-71
2022/05/09 08:19:55;;;;;;;0.65;0.50;;;16.70;59.50;;;;;;5113018;28;20039;-72
2022/05/09 08:22:22;;;;;;;1.27;0.57;;;17.00;59.30;;;;;;5094990;28;20039;-71
2022/05/09 08:24:48;;;;;;;1.48;0.80;;;17.10;59.20;;;;;;5113284;28;20119;-71
2022/05/09 08:27:14;;;;;;;0.50;0.40;;;17.30;59.30;;;;;;5077991;28;20122;-71
2022/05/09 08:29:39;;;;;;;1.10;0.60;;;17.40;59.20;;;;;;5077876;28;20071;-71
2022/05/09 08:32:06;;;;;;;2.08;0.85;;;17.70;59.00;;;;;;5094660;28;20031;-71
2022/05/09 08:34:32;;;;;;;1.58;0.70;;;17.90;58.80;;;;;;5078198;28;20043;-71
2022/05/09 08:36:58;;;;;;;0.65;0.60;;;18.00;58.60;;;;;;5094585;28;20102;-71
2022/05/09 08:39:26;;;;;;;1.30;0.60;;;18.20;58.50;;;;;;5095032;28;20069;-71
2022/05/09 08:42:00;;;;;;;0.68;0.40;;;18.30;58.40;;;;;;5112878;28;20070;-71
2022/05/09 08:44:58;;;;;;;1.38;0.60;;;18.60;58.30;;;;;;5095622;28;20040;-71
2022/05/09 08:47:44;;;;;;;1.10;0.60;;;18.70;58.30;;;;;;5111726;28;20081;-70
2022/05/09 08:50:31;;;;;;;1.17;0.65;;;18.90;58.10;;;;;;5112841;28;20051;-71
2022/05/09 08:53:01;;;;;;;1.23;0.60;;;19.00;58.10;;;;;;5112703;28;20044;-70
2022/05/09 08:55:35;;;;;;;0.55;0.55;;;19.00;58.30;;;;;;5094864;28;20040;-70
2022/05/09 08:58:20;;;;;;;1.25;0.60;;;19.10;58.40;;;;;;5094542;28;20039;-70
2022/05/09 09:00:49;;;;;;;0.88;0.50;;;19.30;58.20;;;;;;5110802;28;20036;-71
2022/05/09 09:03:29;;;;;;;0.85;0.50;;;19.30;58.30;;;;;;5112691;28;20118;-71
2022/05/09 09:06:02;;;;;;;0.52;0.35;;;19.40;58.20;;;;;;5078428;28;20045;-70
2022/05/09 09:08:52;;;;;;;0.50;0.40;;;19.50;58.10;;;;;;5112444;28;20071;-70
2022/05/09 09:11:38;;;;;;;1.15;0.40;;;19.60;58.10;;;;;;5110671;28;20043;-70
2022/05/09 09:14:24;;;;;;;0.57;0.43;;;19.60;58.20;;;;;;5110947;28;20044;-71
2022/05/09 09:17:10;;;;;;;0.50;0.50;;;19.90;58.30;;;;;;5092797;28;20040;-71
2022/05/09 09:20:03;;;;;;;0.90;0.60;;;20.10;57.90;;;;;;5093178;28;20539;-71
2022/05/09 09:23:02;;;;;;;0.47;0.45;;;20.30;57.50;;;;;;5076463;28;20054;-71
2022/05/09 09:25:39;;;;;;;0.75;0.55;;;20.60;57.20;;;;;;5097317;28;20047;-71
2022/05/09 09:28:18;;;;;;;0.55;0.40;;;20.90;56.90;;;;;;5097626;28;20043;-71
2022/05/09 09:30:46;;;;;;;0.50;0.40;;;20.90;56.60;;;;;;5115876;28;20493;-71
2022/05/09 09:33:15;;;;;;;1.27;0.50;;;21.00;56.50;;;;;;5115985;28;20027;-71
2022/05/09 09:36:05;;;;;;;0.63;0.50;;;21.10;56.30;;;;;;5097491;28;20374;-71
2022/05/09 09:38:55;;;;;;;1.55;0.70;;;21.10;56.30;;;;;;5115253;28;20085;-70
2022/05/09 09:41:36;;;;;;;0.63;0.40;;;21.00;56.50;;;;;;5113757;28;20039;-71
2022/05/09 09:44:10;;;;;;;1.35;0.43;;;21.00;56.70;;;;;;5097919;28;20038;-71
2022/05/09 09:47:12;;;;;;;0.82;0.43;;;21.10;56.50;;;;;;5115639;28;20028;-70
2022/05/09 09:49:42;;;;;;;0.40;0.40;;;21.40;56.10;;;;;;5115467;28;20120;-71
2022/05/09 09:52:31;;;;;;;0.33;0.30;;;21.60;55.90;;;;;;5078725;28;20039;-71
2022/05/09 09:55:08;;;;;;;0.40;0.30;;;21.70;55.60;;;;;;5096157;28;20039;-70
2022/05/09 09:57:36;;;;;;;0.45;0.40;;;21.80;55.30;;;;;;5115293;28;20044;-71
2022/05/09 10:00:19;;;;;;;0.30;0.30;;;21.90;55.10;;;;;;5115479;28;20048;-71
2022/05/09 10:02:48;;;;;;;0.75;0.60;;;22.00;55.00;;;;;;5114761;28;20067;-71
2022/05/09 10:05:17;;;;;;;0.75;0.30;;;21.80;55.00;;;;;;5115438;28;20039;-71
2022/05/09 10:07:44;;;;;;;2.08;0.40;;;21.60;55.50;;;;;;5097008;28;20047;-70
2022/05/09 10:10:15;;;;;;;0.50;0.50;;;21.60;55.80;;;;;;5115455;28;20552;-70
2022/05/09 10:12:48;;;;;;;0.85;0.43;;;21.70;55.70;;;;;;5115263;28;20058;-71
2022/05/09 10:15:23;;;;;;;0.90;0.43;;;21.70;55.50;;;;;;5097342;28;20095;-71
2022/05/09 10:17:49;;;;;;;1.90;0.60;;;21.70;55.50;;;;;;5097103;28;20486;-72
2022/05/09 10:20:32;;;;;;;0.88;0.60;;;21.70;55.20;;;;;;5115088;28;20036;-71
2022/05/09 10:26:04;;;;;;;1.08;0.63;;;21.40;55.20;;;;;;5099064;28;20039;-71
2022/05/09 10:28:35;;;;;;;0.70;0.47;;;21.50;55.20;;;;;;5114822;28;20035;-71
2022/05/09 10:31:16;;;;;;;0.60;0.40;;;21.60;55.10;;;;;;5096610;28;20406;-71
2022/05/09 10:34:07;;;;;;;1.60;0.65;;;21.70;54.80;;;;;;5113367;28;20035;-71
2022/05/09 10:36:46;;;;;;;0.50;0.50;;;21.80;54.70;;;;;;5098092;28;20142;-71
2022/05/09 10:39:26;;;;;;;0.43;0.43;;;21.90;54.40;;;;;;5113000;28;20039;-72
2022/05/09 10:41:55;;;;;;;;;;;22.20;54.20;;;;;;5096340;28;20032;-71
2022/05/09 10:44:53;;;;;;;0.38;0.38;;;22.10;54.10;;;;;;5114557;28;19912;-72
2022/05/09 10:47:35;;;;;;;0.40;0.40;;;22.00;54.20;;;;;;5099122;28;20054;-71
2022/05/09 10:50:14;;;;;;;0.55;0.40;;;22.20;54.10;;;;;;5113404;28;20057;-71
2022/05/09 10:52:55;;;;;;;0.50;0.30;;;22.30;53.70;;;;;;5114723;28;20032;-72
2022/05/09 10:55:43;;;;;;;0.38;0.38;;;22.40;53.60;;;;;;5114438;28;20108;-72
2022/05/09 10:58:35;;;;;;;0.30;0.30;;;22.60;53.30;;;;;;5115178;28;20035;-71
2022/05/09 11:01:08;;;;;;;0.73;0.40;;;22.70;53.00;;;;;;5115037;28;20554;-72
2022/05/09 11:03:37;;;;;;;0.40;0.40;;;22.80;53.00;;;;;;5096206;28;20031;-72
2022/05/09 11:06:35;;;;;;;0.40;0.38;;;22.80;52.80;;;;;;5114781;28;20035;-72
2022/05/09 11:09:35;;;;;;;0.43;0.30;;;22.80;52.70;;;;;;5083742;28;20382;-72
2022/05/09 11:12:12;;;;;;;1.02;0.50;;;22.80;52.80;;;;;;5097693;28;20118;-72
2022/05/09 11:14:58;;;;;;;0.47;0.47;;;22.70;53.00;;;;;;5096208;28;20051;-72
2022/05/09 11:17:56;;;;;;;0.77;0.50;;;22.80;53.00;;;;;;5114218;28;20088;-72
2022/05/09 11:20:41;;;;;;;0.95;0.70;;;22.90;52.70;;;;;;5112971;28;20393;-72
2022/05/09 11:23:21;;;;;;;0.95;0.52;;;22.90;52.40;;;;;;5114293;28;20038;-72
2022/05/09 11:26:11;;;;;;;0.52;0.40;;;22.80;52.60;;;;;;5114128;28;20493;-72
2022/05/09 11:29:06;;;;;;;0.30;0.30;;;22.70;52.70;;;;;;5094839;28;20040;-72
2022/05/09 11:31:44;;;;;;;1.52;0.50;;;22.80;52.70;;;;;;5112743;28;20039;-72
2022/05/09 11:34:25;;;;;;;0.80;0.52;;;22.90;52.70;;;;;;5113749;28;20479;-72
2022/05/09 11:37:09;;;;;;;1.35;0.57;;;22.80;52.50;;;;;;5097301;28;20047;-72
2022/05/09 11:39:51;;;;;;;0.57;0.57;;;22.70;52.60;;;;;;5095389;28;20039;-72
2022/05/09 11:45:52;;;;;;;0.55;0.55;;;22.80;52.70;;;;;;5113147;28;20047;-70
2022/05/09 11:48:28;;;;;;;1.42;0.60;;;22.70;52.50;;;;;;5110488;28;20043;-72
2022/05/09 11:51:19;;;;;;;1.20;0.45;;;22.70;52.30;;;;;;5094209;28;20043;-72
2022/05/09 11:53:53;;;;;;;1.73;0.70;;;22.60;52.50;;;;;;5094824;28;20428;-72
2022/05/09 11:56:19;;;;;;;0.40;0.30;;;22.70;52.40;;;;;;5113429;28;20104;-72
2022/05/09 11:58:46;;;;;;;0.65;0.40;;;22.60;52.30;;;;;;5095281;28;20416;-71
2022/05/09 12:01:13;;;;;;;0.80;0.40;;;22.70;52.20;;;;;;5095746;28;20217;-72
2022/05/09 12:03:56;;;;;;;2.97;0.70;;;22.70;52.70;;;;;;5113395;28;20027;-71
2022/05/09 12:06:34;;;;;;;1.00;0.63;;;22.70;52.00;;;;;;5112288;28;20028;-72
2022/05/09 12:09:01;;;;;;;0.75;0.52;;;22.70;52.00;;;;;;5095405;28;20043;-71
2022/05/09 12:11:41;;;;;;;1.50;0.70;;;22.70;52.10;;;;;;5113502;28;20035;-72
2022/05/09 12:14:07;;;;;;;1.15;0.32;;;22.80;52.00;;;;;;5095136;28;20044;-72
2022/05/09 12:16:44;;;;;;;0.93;0.60;;;22.80;51.80;;;;;;5094677;28;20055;-72
2022/05/09 12:19:29;;;;;;;0.43;0.40;;;22.80;51.70;;;;;;5094144;28;20062;-70
2022/05/09 12:22:34;;;;;;;0.55;0.50;;;22.80;51.70;;;;;;5093711;28;20036;-72
2022/05/09 12:25:01;;;;;;;0.65;0.50;;;22.80;51.80;;;;;;5112248;28;20482;-71
2022/05/09 12:27:45;;;;;;;0.60;0.40;;;22.90;51.80;;;;;;5112940;28;20039;-71
2022/05/09 12:30:44;;;;;;;0.73;0.50;;;23.00;51.70;;;;;;5093314;28;20493;-71
2022/05/09 12:33:19;;;;;;;0.65;0.50;;;23.00;51.50;;;;;;5111473;28;20101;-71
2022/05/09 12:35:49;;;;;;;0.63;0.45;;;23.10;51.40;;;;;;5094595;28;20036;-71
2022/05/09 12:38:23;;;;;;;0.50;0.50;;;23.10;51.40;;;;;;5094142;28;20036;-71
2022/05/09 12:40:59;;;;;;;0.73;0.50;;;23.10;51.40;;;;;;5112794;28;20543;-71
2022/05/09 12:43:25;;;;;;;0.75;0.50;;;23.00;51.10;;;;;;5094288;28;20392;-71
2022/05/09 12:45:51;;;;;;;0.60;0.30;;;23.00;51.30;;;;;;5113192;28;20040;-71
2022/05/09 12:48:17;;;;;;;0.40;0.40;;;22.90;51.30;;;;;;5077493;28;20134;-71
2022/05/09 12:50:45;;;;;;;0.80;0.40;;;22.80;51.30;;;;;;5112475;28;20043;-71
2022/05/09 12:53:15;;;;;;;0.65;0.40;;;22.70;51.40;;;;;;5112604;28;20070;-71
2022/05/09 12:58:26;;;;;;;1.48;0.70;;;22.70;51.50;;;;;;5095912;28;20046;-72
2022/05/09 13:01:11;;;;;;;1.23;0.70;;;22.70;51.40;;;;;;5095181;28;20042;-73
2022/05/09 13:03:52;;;;;;;0.82;0.70;;;22.70;51.20;;;;;;5062208;28;20038;-72
2022/05/09 13:06:21;;;;;;;0.52;0.40;;;22.70;51.10;;;;;;5111692;28;20047;-72
2022/05/09 13:08:48;;;;;;;0.73;0.50;;;22.70;51.20;;;;;;5112358;28;20048;-72
2022/05/09 13:11:21;;;;;;;0.75;0.60;;;22.80;51.20;;;;;;5094277;28;20040;-72
2022/05/09 13:13:58;;;;;;;2.22;0.80;;;22.90;50.90;;;;;;5111224;28;20039;-72
2022/05/09 13:16:29;;;;;;;0.88;0.60;;;22.90;50.70;;;;;;5112663;28;20067;-72
2022/05/09 13:18:56;;;;;;;0.40;0.40;;;22.80;50.80;;;;;;5112026;28;20397;-72
2022/05/09 13:21:30;;;;;;;1.30;0.73;;;22.70;50.90;;;;;;5112698;28;20100;-72
2022/05/09 13:23:56;;;;;;;2.15;0.55;;;22.60;50.90;;;;;;5078240;28;20039;-73
2022/05/09 13:26:25;;;;;;;1.20;0.52;;;22.70;51.20;;;;;;5113021;28;20078;-72
2022/05/09 13:28:53;;;;;;;2.03;0.68;;;22.60;51.10;;;;;;5095270;28;20104;-72